createdAt,value
2017-05-05T00:00:31.728Z,14.15
2017-05-05T00:01:12.247Z,14.17
2017-05-05T00:01:52.769Z,14.17
2017-05-05T00:02:33.289Z,14.21
2017-05-05T00:03:13.804Z,14.18
2017-05-05T00:03:54.346Z,14.12
2017-05-05T00:04:34.863Z,14.17
2017-05-05T00:05:15.401Z,14.18
2017-05-05T00:05:55.917Z,14.12
2017-05-05T00:06:36.433Z,14.07
2017-05-05T00:07:16.957Z,13.97
2017-05-05T00:07:57.472Z,14
2017-05-05T00:08:37.986Z,14
2017-05-05T00:09:18.504Z,14.04
2017-05-05T00:09:59.039Z,13.99
2017-05-05T00:10:39.567Z,14.03
2017-05-05T00:11:20.100Z,14.06
2017-05-05T00:12:00.616Z,14.02
2017-05-05T00:12:41.135Z,13.97
2017-05-05T00:13:21.661Z,14.12
2017-05-05T00:14:02.188Z,14.07
2017-05-05T00:14:42.701Z,14.07
2017-05-05T00:15:23.223Z,14.17
2017-05-05T00:16:03.750Z,14.18
2017-05-05T00:16:44.268Z,14.24
2017-05-05T00:17:24.783Z,14.22
2017-05-05T00:18:05.299Z,14.22
2017-05-05T00:18:45.823Z,14.18
2017-05-05T00:19:26.359Z,14.25
2017-05-05T00:20:06.889Z,14.2
2017-05-05T00:20:47.407Z,14.36
2017-05-05T00:21:27.936Z,14.35
2017-05-05T00:22:08.459Z,14.29
2017-05-05T00:22:48.997Z,14.32
2017-05-05T00:23:29.515Z,14.36
2017-05-05T00:24:10.053Z,14.25
2017-05-05T00:24:50.566Z,14.29
2017-05-05T00:25:31.084Z,14.24
2017-05-05T00:26:11.603Z,14.28
2017-05-05T00:26:52.128Z,14.25
2017-05-05T00:27:32.652Z,14.29
2017-05-05T00:28:13.209Z,14.25
2017-05-05T00:28:53.731Z,14.29
2017-05-05T00:29:34.314Z,14.29
2017-05-05T00:30:14.870Z,14.27
2017-05-05T00:30:55.369Z,14.24
2017-05-05T00:31:35.888Z,14.39
2017-05-05T00:32:16.404Z,14.27
2017-05-05T00:32:56.916Z,14.35
2017-05-05T00:33:37.440Z,14.22
2017-05-05T00:34:17.960Z,14.17
2017-05-05T00:34:58.479Z,14.18
2017-05-05T00:35:38.992Z,14.18
2017-05-05T00:36:19.562Z,14.18
2017-05-05T00:37:00.068Z,14.28
2017-05-05T00:37:40.588Z,14.35
2017-05-05T00:38:21.111Z,14.33
2017-05-05T00:39:01.621Z,14.29
2017-05-05T00:39:42.131Z,14.27
2017-05-05T00:40:22.669Z,14.25
2017-05-05T00:41:03.178Z,14.33
2017-05-05T00:41:43.701Z,14.28
2017-05-05T00:42:24.227Z,14.25
2017-05-05T00:43:04.761Z,14.18
2017-05-05T00:43:45.287Z,14.21
2017-05-05T00:44:25.796Z,14.18
2017-05-05T00:45:06.325Z,14.18
2017-05-05T00:45:46.810Z,14.09
2017-05-05T00:46:27.346Z,13.96
2017-05-05T00:47:07.874Z,14.02
2017-05-05T00:47:48.427Z,14.03
2017-05-05T00:48:28.936Z,14.04
2017-05-05T00:49:09.423Z,14.07
2017-05-05T00:49:49.934Z,13.99
2017-05-05T00:50:30.457Z,13.92
2017-05-05T00:51:10.970Z,13.88
2017-05-05T00:51:51.493Z,13.87
2017-05-05T00:52:32.015Z,13.73
2017-05-05T00:53:12.548Z,13.67
2017-05-05T00:53:53.063Z,13.84
2017-05-05T00:54:33.593Z,13.87
2017-05-05T00:55:14.092Z,13.87
2017-05-05T00:55:54.632Z,13.92
2017-05-05T00:56:35.154Z,14.03
2017-05-05T00:57:15.666Z,13.91
2017-05-05T00:57:56.190Z,13.89
2017-05-05T00:58:36.717Z,13.88
2017-05-05T00:59:17.239Z,13.79
2017-05-05T00:59:57.755Z,13.84
2017-05-05T01:00:38.277Z,13.92
2017-05-05T01:01:18.792Z,13.99
2017-05-05T01:01:59.319Z,13.97
2017-05-05T01:02:39.848Z,14.03
2017-05-05T01:03:20.368Z,14.04
2017-05-05T01:04:00.901Z,14.04
2017-05-05T01:04:41.425Z,14.06
2017-05-05T01:05:21.942Z,14
2017-05-05T01:06:02.458Z,14
2017-05-05T01:06:42.995Z,14.02
2017-05-05T01:07:23.533Z,14.06
2017-05-05T01:08:04.052Z,14.02
2017-05-05T01:08:44.574Z,14.07
2017-05-05T01:09:25.086Z,14.18
2017-05-05T01:10:05.618Z,14.09
2017-05-05T01:10:46.132Z,14.21
2017-05-05T01:11:26.655Z,14.17
2017-05-05T01:12:07.173Z,14.18
2017-05-05T01:12:47.691Z,14.09
2017-05-05T01:13:28.212Z,13.95
2017-05-05T01:14:08.739Z,14.04
2017-05-05T01:14:49.254Z,14.07
2017-05-05T01:15:29.801Z,14.15
2017-05-05T01:16:10.317Z,14.18
2017-05-05T01:16:50.837Z,14.15
2017-05-05T01:17:31.353Z,14.2
2017-05-05T01:18:11.865Z,14.21
2017-05-05T01:18:52.386Z,14.21
2017-05-05T01:19:32.911Z,14.12
2017-05-05T01:20:13.440Z,14.2
2017-05-05T01:20:53.954Z,14.17
2017-05-05T01:21:34.485Z,14.32
2017-05-05T01:22:15.019Z,14.25
2017-05-05T01:22:55.539Z,14.25
2017-05-05T01:23:36.061Z,14.28
2017-05-05T01:24:16.587Z,14.22
2017-05-05T01:24:57.112Z,14.27
2017-05-05T01:25:37.640Z,14.32
2017-05-05T01:26:18.160Z,14.25
2017-05-05T01:26:58.675Z,14.24
2017-05-05T01:27:39.194Z,14.32
2017-05-05T01:28:19.715Z,14.25
2017-05-05T01:29:00.236Z,14.22
2017-05-05T01:29:40.760Z,14.04
2017-05-05T01:30:21.284Z,14.15
2017-05-05T01:31:01.797Z,14.1
2017-05-05T01:31:42.316Z,14.12
2017-05-05T01:32:22.842Z,14.17
2017-05-05T01:33:03.375Z,14.18
2017-05-05T01:33:43.892Z,14.25
2017-05-05T01:34:24.415Z,14.17
2017-05-05T01:35:04.932Z,14.33
2017-05-05T01:35:45.456Z,14.27
2017-05-05T01:36:25.971Z,14.21
2017-05-05T01:37:06.492Z,14.27
2017-05-05T01:37:47.013Z,14.33
2017-05-05T01:38:27.527Z,14.29
2017-05-05T01:39:08.051Z,14.29
2017-05-05T01:39:48.579Z,14.27
2017-05-05T01:40:29.113Z,14.33
2017-05-05T01:41:09.631Z,14.29
2017-05-05T01:41:50.158Z,14.25
2017-05-05T01:42:30.692Z,14.25
2017-05-05T01:43:11.207Z,14.32
2017-05-05T01:43:51.724Z,14.35
2017-05-05T01:44:32.244Z,14.24
2017-05-05T01:45:12.765Z,14.28
2017-05-05T01:45:53.321Z,14.25
2017-05-05T01:46:33.846Z,14.36
2017-05-05T01:47:14.373Z,14.39
2017-05-05T01:47:54.878Z,14.27
2017-05-05T01:48:35.398Z,14.35
2017-05-05T01:49:15.902Z,14.32
2017-05-05T01:49:56.439Z,14.27
2017-05-05T01:50:36.966Z,14.24
2017-05-05T01:51:17.495Z,14.36
2017-05-05T01:51:58.047Z,14.28
2017-05-05T01:52:38.547Z,14.27
2017-05-05T01:53:19.076Z,14.25
2017-05-05T01:53:59.590Z,14.24
2017-05-05T01:54:40.112Z,14.28
2017-05-05T01:55:20.648Z,14.29
2017-05-05T01:56:01.167Z,14.42
2017-05-05T01:56:41.689Z,14.27
2017-05-05T01:57:22.215Z,14.29
2017-05-05T01:58:02.738Z,14.36
2017-05-05T01:58:43.253Z,14.39
2017-05-05T01:59:23.778Z,14.45
2017-05-05T02:00:04.301Z,14.36
2017-05-05T02:00:44.825Z,14.35
2017-05-05T02:01:25.337Z,14.36
2017-05-05T02:02:05.900Z,14.35
2017-05-05T02:02:46.387Z,14.5
2017-05-05T02:03:26.879Z,14.55
2017-05-05T02:04:07.426Z,14.52
2017-05-05T02:04:47.960Z,14.51
2017-05-05T02:05:28.497Z,14.5
2017-05-05T02:06:09.023Z,14.54
2017-05-05T02:06:49.563Z,14.55
2017-05-05T02:07:30.049Z,14.47
2017-05-05T02:08:10.569Z,14.43
2017-05-05T02:08:51.073Z,14.37
2017-05-05T02:09:31.600Z,14.4
2017-05-05T02:10:12.114Z,14.36
2017-05-05T02:10:52.624Z,14.4
2017-05-05T02:11:33.150Z,14.36
2017-05-05T02:12:13.659Z,14.42
2017-05-05T02:12:54.221Z,14.42
2017-05-05T02:13:34.715Z,14.42
2017-05-05T02:14:15.231Z,14.45
2017-05-05T02:14:55.785Z,14.43
2017-05-05T02:15:36.305Z,14.45
2017-05-05T02:16:16.824Z,14.5
2017-05-05T02:16:57.359Z,14.51
2017-05-05T02:17:37.854Z,14.52
2017-05-05T02:18:18.374Z,14.54
2017-05-05T02:18:58.899Z,14.5
2017-05-05T02:19:39.428Z,14.5
2017-05-05T02:20:19.955Z,14.5
2017-05-05T02:21:00.480Z,14.55
2017-05-05T02:21:40.993Z,14.51
2017-05-05T02:22:21.520Z,14.55
2017-05-05T02:23:02.033Z,14.5
2017-05-05T02:23:42.570Z,14.5
2017-05-05T02:24:23.058Z,14.45
2017-05-05T02:25:03.580Z,14.47
2017-05-05T02:25:44.099Z,14.42
2017-05-05T02:26:24.632Z,14.45
2017-05-05T02:27:05.160Z,14.47
2017-05-05T02:27:45.710Z,14.54
2017-05-05T02:28:26.246Z,14.57
2017-05-05T02:29:06.734Z,14.5
2017-05-05T02:29:47.259Z,14.61
2017-05-05T02:30:27.770Z,14.51
2017-05-05T02:31:08.299Z,14.47
2017-05-05T02:31:48.832Z,14.47
2017-05-05T02:32:29.364Z,14.58
2017-05-05T02:33:09.888Z,14.4
2017-05-05T02:33:50.405Z,14.45
2017-05-05T02:34:30.950Z,14.47
2017-05-05T02:35:11.460Z,14.45
2017-05-05T02:35:52.002Z,14.39
2017-05-05T02:36:32.500Z,14.36
2017-05-05T02:37:13.014Z,14.42
2017-05-05T02:37:53.544Z,14.45
2017-05-05T02:38:34.078Z,14.42
2017-05-05T02:39:14.606Z,14.37
2017-05-05T02:39:55.136Z,14.42
2017-05-05T02:40:35.667Z,14.35
2017-05-05T02:41:16.195Z,14.43
2017-05-05T02:41:56.722Z,14.47
2017-05-05T02:42:37.242Z,14.52
2017-05-05T02:43:17.767Z,14.46
2017-05-05T02:43:58.301Z,14.5
2017-05-05T02:44:38.814Z,14.51
2017-05-05T02:45:19.342Z,14.46
2017-05-05T02:45:59.859Z,14.47
2017-05-05T02:46:40.377Z,14.35
2017-05-05T02:47:20.891Z,14.51
2017-05-05T02:48:01.404Z,14.54
2017-05-05T02:48:42.008Z,14.5
2017-05-05T02:49:22.534Z,14.52
2017-05-05T02:50:03.068Z,14.5
2017-05-05T02:50:43.681Z,14.5
2017-05-05T02:51:24.166Z,14.43
2017-05-05T02:52:04.690Z,14.45
2017-05-05T02:52:45.200Z,14.36
2017-05-05T02:53:25.730Z,14.36
2017-05-05T02:54:06.235Z,14.39
2017-05-05T02:54:46.756Z,14.39
2017-05-05T02:55:27.295Z,14.39
2017-05-05T02:56:07.816Z,14.39
2017-05-05T02:56:48.355Z,14.32
2017-05-05T02:57:28.818Z,14.4
2017-05-05T02:58:09.356Z,14.42
2017-05-05T02:58:49.850Z,14.4
2017-05-05T02:59:30.374Z,14.33
2017-05-05T03:00:10.889Z,14.36
2017-05-05T03:00:51.413Z,14.29
2017-05-05T03:01:31.929Z,14.25
2017-05-05T03:02:12.474Z,14.24
2017-05-05T03:02:53.001Z,14.27
2017-05-05T03:03:33.528Z,14.28
2017-05-05T03:04:14.058Z,14.24
2017-05-05T03:04:54.593Z,14.25
2017-05-05T03:05:35.127Z,14.27
2017-05-05T03:06:15.635Z,14.36
2017-05-05T03:06:56.177Z,14.25
2017-05-05T03:07:36.697Z,14.29
2017-05-05T03:08:17.219Z,14.45
2017-05-05T03:08:57.744Z,14.27
2017-05-05T03:09:38.283Z,14.27
2017-05-05T03:10:18.781Z,14.39
2017-05-05T03:10:59.317Z,14.4
2017-05-05T03:11:39.813Z,14.35
2017-05-05T03:12:20.330Z,14.36
2017-05-05T03:13:00.830Z,14.21
2017-05-05T03:13:41.300Z,14.22
2017-05-05T03:14:21.876Z,14.22
2017-05-05T03:15:02.305Z,14.25
2017-05-05T03:15:42.814Z,14.27
2017-05-05T03:16:23.351Z,14.29
2017-05-05T03:17:03.872Z,14.28
2017-05-05T03:17:44.393Z,14.32
2017-05-05T03:18:24.914Z,14.39
2017-05-05T03:19:05.428Z,14.29
2017-05-05T03:19:45.951Z,14.39
2017-05-05T03:20:26.472Z,14.45
2017-05-05T03:21:06.996Z,14.45
2017-05-05T03:21:47.517Z,14.4
2017-05-05T03:22:28.062Z,14.39
2017-05-05T03:23:08.589Z,14.29
2017-05-05T03:23:49.107Z,14.25
2017-05-05T03:24:29.635Z,14.36
2017-05-05T03:25:10.148Z,14.2
2017-05-05T03:25:50.693Z,14.04
2017-05-05T03:26:31.225Z,14.03
2017-05-05T03:27:11.777Z,14.03
2017-05-05T03:27:52.283Z,14.04
2017-05-05T03:29:45.382Z,13.99
2017-05-05T03:30:25.952Z,13.97
2017-05-05T03:31:06.473Z,13.96
2017-05-05T03:31:46.983Z,14.07
2017-05-05T03:32:27.497Z,14.09
2017-05-05T03:33:08.004Z,14.06
2017-05-05T03:33:48.525Z,14.04
2017-05-05T03:34:29.028Z,14.1
2017-05-05T03:35:09.558Z,13.96
2017-05-05T03:35:50.065Z,14.09
2017-05-05T03:36:30.580Z,14
2017-05-05T03:37:11.133Z,13.88
2017-05-05T03:37:51.641Z,13.85
2017-05-05T03:38:32.159Z,13.92
2017-05-05T03:39:12.743Z,13.99
2017-05-05T03:39:53.223Z,13.97
2017-05-05T03:40:33.674Z,14.07
2017-05-05T03:41:14.162Z,14.04
2017-05-05T03:41:54.667Z,13.95
2017-05-05T03:42:35.159Z,14.07
2017-05-05T03:43:15.638Z,14.06
2017-05-05T03:43:56.173Z,13.91
2017-05-05T03:44:36.696Z,14.03
2017-05-05T03:45:17.186Z,14.1
2017-05-05T03:45:57.679Z,14.1
2017-05-05T03:46:38.190Z,14.17
2017-05-05T03:47:18.712Z,14.14
2017-05-05T03:47:59.234Z,14.15
2017-05-05T03:48:39.706Z,14.17
2017-05-05T03:49:20.152Z,14.15
2017-05-05T03:50:00.656Z,14.21
2017-05-05T03:50:41.210Z,14.06
2017-05-05T03:51:21.675Z,14
2017-05-05T03:52:02.220Z,14.03
2017-05-05T03:52:42.773Z,14.14
2017-05-05T03:53:23.213Z,14.17
2017-05-05T03:54:03.724Z,14.09
2017-05-05T03:54:44.212Z,14.15
2017-05-05T03:55:24.751Z,14.21
2017-05-05T03:56:05.202Z,14.21
2017-05-05T03:56:45.712Z,14.15
2017-05-05T03:57:26.238Z,14.2
2017-05-05T03:58:06.779Z,14.22
2017-05-05T03:58:47.295Z,14.17
2017-05-05T03:59:27.810Z,14.24
2017-05-05T04:00:08.343Z,14.17
2017-05-05T04:00:48.876Z,14.09
2017-05-05T04:01:29.392Z,14.2
2017-05-05T04:02:09.914Z,14.17
2017-05-05T04:02:50.470Z,14.17
2017-05-05T04:03:30.929Z,14.29
2017-05-05T04:04:11.416Z,14.27
2017-05-05T04:04:51.905Z,14.35
2017-05-05T04:05:32.422Z,14.14
2017-05-05T04:06:12.936Z,14.25
2017-05-05T04:06:53.459Z,14.17
2017-05-05T04:07:34.012Z,14.2
2017-05-05T04:08:14.467Z,14.25
2017-05-05T04:08:54.995Z,14.32
2017-05-05T04:09:35.515Z,14.25
2017-05-05T04:10:16.009Z,14.29
2017-05-05T04:10:56.502Z,14.18
2017-05-05T04:11:37.019Z,14.17
2017-05-05T04:12:17.543Z,14.1
2017-05-05T04:12:58.065Z,13.91
2017-05-05T04:13:38.591Z,13.81
2017-05-05T04:14:19.118Z,13.96
2017-05-05T04:14:59.634Z,13.99
2017-05-05T04:15:40.149Z,14.04
2017-05-05T04:16:20.662Z,14.03
2017-05-05T04:17:01.176Z,14.04
2017-05-05T04:17:41.691Z,14.06
2017-05-05T04:18:22.211Z,14.17
2017-05-05T04:19:02.963Z,14.15
2017-05-05T04:19:43.504Z,14.14
2017-05-05T04:20:24.018Z,14.15
2017-05-05T04:21:04.547Z,14.22
2017-05-05T04:21:45.064Z,14.24
2017-05-05T04:22:25.577Z,14.09
2017-05-05T04:23:06.101Z,14.02
2017-05-05T04:23:46.617Z,14.17
2017-05-05T04:24:27.134Z,14.18
2017-05-05T04:25:07.753Z,14.14
2017-05-05T04:25:48.272Z,14.12
2017-05-05T04:26:28.796Z,14.12
2017-05-05T04:27:09.312Z,14
2017-05-05T04:27:49.824Z,14.12
2017-05-05T04:28:30.350Z,14.06
2017-05-05T04:29:10.866Z,14.17
2017-05-05T04:29:51.385Z,14.02
2017-05-05T04:30:31.907Z,14.04
2017-05-05T04:31:12.421Z,13.96
2017-05-05T04:31:52.942Z,14.02
2017-05-05T04:32:33.474Z,14
2017-05-05T04:33:13.994Z,14.07
2017-05-05T04:33:54.505Z,14.09
2017-05-05T04:34:35.032Z,14.06
2017-05-05T04:35:15.554Z,14.04
2017-05-05T04:35:56.066Z,13.99
2017-05-05T04:36:36.587Z,14.04
2017-05-05T04:37:17.109Z,13.92
2017-05-05T04:37:57.650Z,13.82
2017-05-05T04:38:38.177Z,13.96
2017-05-05T04:39:18.697Z,14.07
2017-05-05T04:39:59.216Z,13.99
2017-05-05T04:40:39.737Z,13.99
2017-05-05T04:41:20.265Z,13.91
2017-05-05T04:42:00.790Z,13.82
2017-05-05T04:42:41.318Z,13.79
2017-05-05T04:43:21.826Z,13.82
2017-05-05T04:44:02.353Z,13.71
2017-05-05T04:44:42.885Z,13.71
2017-05-05T04:45:23.394Z,13.71
2017-05-05T04:46:03.917Z,13.7
2017-05-05T04:46:44.453Z,13.67
2017-05-05T04:47:24.977Z,13.77
2017-05-05T04:48:05.507Z,13.79
2017-05-05T04:48:46.030Z,13.69
2017-05-05T04:49:26.550Z,13.73
2017-05-05T04:50:07.072Z,13.77
2017-05-05T04:50:47.601Z,13.81
2017-05-05T04:51:28.112Z,13.75
2017-05-05T04:52:08.641Z,13.84
2017-05-05T04:52:49.167Z,13.88
2017-05-05T04:53:29.678Z,13.92
2017-05-05T04:54:10.220Z,13.95
2017-05-05T04:54:50.757Z,13.95
2017-05-05T04:55:31.278Z,14.02
2017-05-05T04:56:11.797Z,13.87
2017-05-05T04:56:52.318Z,13.85
2017-05-05T04:57:32.838Z,13.91
2017-05-05T04:58:13.354Z,13.91
2017-05-05T04:58:53.876Z,13.97
2017-05-05T04:59:34.392Z,14.03
2017-05-05T05:00:14.916Z,14.03
2017-05-05T05:00:55.432Z,14.17
2017-05-05T05:01:35.989Z,14.14
2017-05-05T05:02:16.501Z,14.14
2017-05-05T05:02:57.031Z,14.12
2017-05-05T05:03:37.553Z,14.07
2017-05-05T05:04:18.163Z,14.17
2017-05-05T05:04:58.670Z,14.17
2017-05-05T05:05:39.196Z,14.27
2017-05-05T05:06:19.721Z,14.25
2017-05-05T05:07:00.237Z,14.28
2017-05-05T05:07:40.759Z,14.32
2017-05-05T05:08:21.289Z,14.36
2017-05-05T05:09:01.806Z,14.27
2017-05-05T05:09:42.328Z,14.35
2017-05-05T05:10:22.842Z,14.29
2017-05-05T05:11:03.380Z,14.24
2017-05-05T05:11:43.898Z,14.14
2017-05-05T05:12:24.421Z,14.29
2017-05-05T05:13:04.932Z,14.28
2017-05-05T05:13:45.457Z,14.29
2017-05-05T05:14:25.977Z,14.42
2017-05-05T05:15:06.496Z,14.43
2017-05-05T05:15:47.024Z,14.4
2017-05-05T05:16:27.553Z,14.5
2017-05-05T05:17:08.075Z,14.42
2017-05-05T05:17:48.677Z,14.46
2017-05-05T05:18:29.142Z,14.42
2017-05-05T05:19:09.661Z,14.36
2017-05-05T05:19:50.176Z,14.42
2017-05-05T05:20:30.714Z,14.43
2017-05-05T05:21:11.231Z,14.47
2017-05-05T05:21:51.754Z,14.35
2017-05-05T05:22:32.283Z,14.43
2017-05-05T05:23:12.800Z,14.43
2017-05-05T05:23:53.323Z,14.55
2017-05-05T05:24:33.860Z,14.6
2017-05-05T05:25:14.383Z,14.51
2017-05-05T05:25:54.906Z,14.58
2017-05-05T05:26:35.441Z,14.54
2017-05-05T05:27:15.958Z,14.55
2017-05-05T05:27:56.493Z,14.65
2017-05-05T05:28:37.005Z,14.69
2017-05-05T05:29:17.521Z,14.73
2017-05-05T05:29:58.050Z,14.73
2017-05-05T05:30:38.568Z,14.62
2017-05-05T05:31:19.091Z,14.35
2017-05-05T05:31:59.606Z,14.52
2017-05-05T05:32:40.126Z,14.5
2017-05-05T05:33:20.657Z,14.54
2017-05-05T05:34:01.175Z,14.89
2017-05-05T05:34:41.697Z,15.21
2017-05-05T05:35:22.241Z,15.06
2017-05-05T05:36:02.800Z,14.99
2017-05-05T05:36:43.270Z,14.78
2017-05-05T05:37:23.801Z,14.73
2017-05-05T05:38:04.323Z,14.78
2017-05-05T05:38:45.074Z,14.83
2017-05-05T05:39:25.599Z,14.77
2017-05-05T05:40:06.091Z,14.83
2017-05-05T05:40:46.604Z,14.98
2017-05-05T05:41:27.108Z,15.07
2017-05-05T05:42:07.626Z,15.09
2017-05-05T05:42:48.145Z,14.98
2017-05-05T05:43:28.678Z,15.01
2017-05-05T05:44:09.206Z,14.89
2017-05-05T05:44:49.747Z,14.88
2017-05-05T05:45:30.287Z,14.81
2017-05-05T05:46:10.804Z,15.03
2017-05-05T05:46:51.329Z,15.07
2017-05-05T05:47:32.245Z,15.06
2017-05-05T05:48:12.801Z,15.06
2017-05-05T05:48:53.317Z,14.99
2017-05-05T05:49:33.849Z,14.99
2017-05-05T05:50:14.909Z,14.83
2017-05-05T05:50:55.435Z,14.84
2017-05-05T05:51:35.958Z,14.83
2017-05-05T05:52:16.479Z,14.91
2017-05-05T05:52:57.002Z,15.07
2017-05-05T05:53:38.209Z,14.92
2017-05-05T05:54:18.732Z,14.77
2017-05-05T05:54:59.275Z,14.83
2017-05-05T05:55:39.827Z,14.84
2017-05-05T05:56:20.344Z,14.84
2017-05-05T05:57:00.867Z,14.68
2017-05-05T05:57:41.371Z,14.65
2017-05-05T05:58:21.933Z,14.68
2017-05-05T05:59:02.682Z,14.77
2017-05-05T05:59:43.281Z,14.77
2017-05-05T06:00:23.795Z,14.62
2017-05-05T06:01:04.308Z,14.65
2017-05-05T06:01:44.840Z,14.5
2017-05-05T06:02:25.359Z,14.58
2017-05-05T06:03:05.880Z,14.6
2017-05-05T06:03:46.406Z,14.7
2017-05-05T06:04:27.049Z,14.68
2017-05-05T06:05:07.520Z,14.83
2017-05-05T06:05:48.043Z,14.88
2017-05-05T06:07:46.215Z,15.02
2017-05-05T06:08:26.731Z,15.03
2017-05-05T06:09:07.264Z,15.11
2017-05-05T06:09:47.781Z,15.06
2017-05-05T06:10:28.295Z,15.19
2017-05-05T06:11:08.819Z,15.17
2017-05-05T06:11:49.358Z,15.09
2017-05-05T06:12:29.850Z,15.06
2017-05-05T06:13:10.367Z,15.09
2017-05-05T06:13:50.878Z,15.03
2017-05-05T06:14:31.405Z,14.99
2017-05-05T06:15:11.947Z,15.02
2017-05-05T06:15:52.469Z,15.06
2017-05-05T06:16:32.989Z,15.02
2017-05-05T06:17:13.519Z,15.27
2017-05-05T06:17:54.039Z,15.28
2017-05-05T06:18:34.557Z,15.31
2017-05-05T06:19:15.076Z,15.06
2017-05-05T06:19:55.613Z,15.17
2017-05-05T06:20:36.138Z,15.06
2017-05-05T06:21:16.668Z,15.09
2017-05-05T06:21:57.185Z,15.03
2017-05-05T06:22:37.710Z,15.1
2017-05-05T06:23:18.222Z,15.02
2017-05-05T06:23:58.739Z,15.01
2017-05-05T06:24:39.270Z,15.1
2017-05-05T06:25:19.788Z,15.02
2017-05-05T06:26:00.305Z,15.2
2017-05-05T06:26:40.821Z,15.41
2017-05-05T06:27:21.329Z,15.67
2017-05-05T06:28:01.847Z,15.71
2017-05-05T06:28:42.406Z,15.96
2017-05-05T06:29:22.904Z,16.05
2017-05-05T06:30:03.423Z,15.74
2017-05-05T06:30:43.936Z,15.84
2017-05-05T06:31:24.455Z,15.87
2017-05-05T06:32:04.980Z,16.14
2017-05-05T06:32:45.502Z,16.23
2017-05-05T06:33:26.012Z,16.23
2017-05-05T06:34:06.535Z,16.14
2017-05-05T06:34:47.053Z,16.08
2017-05-05T06:35:27.584Z,16.12
2017-05-05T06:36:08.110Z,16.24
2017-05-05T06:36:48.631Z,16.27
2017-05-05T06:37:29.144Z,16.25
2017-05-05T06:38:09.661Z,16.28
2017-05-05T06:38:50.198Z,16.42
2017-05-05T06:39:30.715Z,16.31
2017-05-05T06:40:11.240Z,16.01
2017-05-05T06:40:51.757Z,16.09
2017-05-05T06:41:32.289Z,16.02
2017-05-05T06:42:12.796Z,15.97
2017-05-05T06:42:53.320Z,15.97
2017-05-05T06:43:33.958Z,15.96
2017-05-05T06:44:14.374Z,16.11
2017-05-05T06:44:54.906Z,16.05
2017-05-05T06:45:35.478Z,16.08
2017-05-05T06:46:16.005Z,16.08
2017-05-05T06:46:56.510Z,16
2017-05-05T06:47:37.060Z,15.92
2017-05-05T06:48:17.547Z,15.93
2017-05-05T06:48:58.073Z,16.08
2017-05-05T06:49:38.593Z,16.14
2017-05-05T06:50:19.117Z,16.12
2017-05-05T06:50:59.628Z,16.15
2017-05-05T06:51:40.148Z,16.17
2017-05-05T06:52:20.689Z,16.11
2017-05-05T06:53:01.229Z,16.28
2017-05-05T06:53:41.753Z,16.2
2017-05-05T06:54:22.268Z,16.09
2017-05-05T06:55:02.800Z,16.09
2017-05-05T06:55:43.326Z,16.08
2017-05-05T06:56:23.846Z,16.07
2017-05-05T06:57:04.375Z,15.93
2017-05-05T06:57:44.887Z,15.93
2017-05-05T06:58:25.406Z,15.96
2017-05-05T06:59:05.928Z,16.02
2017-05-05T06:59:46.449Z,16.05
2017-05-05T07:00:26.976Z,16.07
2017-05-05T07:01:07.497Z,16.11
2017-05-05T07:01:48.078Z,16.08
2017-05-05T07:02:28.611Z,15.89
2017-05-05T07:03:09.123Z,16.07
2017-05-05T07:03:49.644Z,16.11
2017-05-05T07:04:30.155Z,16.09
2017-05-05T07:05:10.671Z,16.21
2017-05-05T07:05:51.190Z,16.28
2017-05-05T07:06:31.713Z,16.42
2017-05-05T07:07:12.252Z,16.35
2017-05-05T07:07:52.787Z,16.56
2017-05-05T07:08:33.300Z,16.68
2017-05-05T07:09:13.826Z,16.81
2017-05-05T07:09:54.347Z,16.86
2017-05-05T07:10:34.869Z,17.07
2017-05-05T07:11:15.420Z,17.23
2017-05-05T07:11:55.900Z,17.46
2017-05-05T07:12:36.423Z,17.41
2017-05-05T07:13:16.942Z,17.41
2017-05-05T07:13:57.447Z,17.46
2017-05-05T07:14:37.962Z,17.49
2017-05-05T07:15:18.521Z,17.55
2017-05-05T07:15:59.051Z,17.59
2017-05-05T07:16:39.571Z,17.55
2017-05-05T07:17:20.107Z,17.64
2017-05-05T07:18:00.626Z,17.79
2017-05-05T07:18:41.151Z,17.77
2017-05-05T07:19:21.691Z,17.9
2017-05-05T07:20:02.203Z,17.82
2017-05-05T07:20:42.746Z,17.89
2017-05-05T07:21:23.268Z,18.03
2017-05-05T07:22:03.805Z,18.1
2017-05-05T07:22:44.351Z,18.03
2017-05-05T07:23:24.899Z,18.05
2017-05-05T07:24:05.427Z,17.96
2017-05-05T07:24:45.945Z,18.02
2017-05-05T07:25:26.470Z,17.95
2017-05-05T07:26:07.007Z,17.84
2017-05-05T07:26:47.529Z,17.72
2017-05-05T07:27:28.043Z,17.81
2017-05-05T07:28:08.556Z,17.92
2017-05-05T07:28:49.071Z,17.9
2017-05-05T07:29:29.596Z,17.93
2017-05-05T07:30:10.118Z,17.89
2017-05-05T07:30:50.644Z,17.86
2017-05-05T07:31:31.193Z,17.96
2017-05-05T07:32:11.727Z,17.82
2017-05-05T07:32:52.260Z,17.96
2017-05-05T07:33:32.787Z,17.7
2017-05-05T07:34:13.307Z,17.84
2017-05-05T07:34:53.829Z,17.71
2017-05-05T07:35:34.348Z,17.74
2017-05-05T07:36:14.869Z,17.78
2017-05-05T07:36:55.362Z,17.97
2017-05-05T07:37:35.928Z,18.03
2017-05-05T07:38:16.458Z,17.99
2017-05-05T07:38:56.967Z,18.18
2017-05-05T07:39:37.524Z,18.17
2017-05-05T07:40:18.048Z,18.25
2017-05-05T07:40:58.555Z,18.26
2017-05-05T07:41:39.082Z,18.33
2017-05-05T07:42:19.975Z,18.32
2017-05-05T07:43:00.499Z,18.33
2017-05-05T07:43:41.071Z,18.45
2017-05-05T07:44:21.639Z,18.42
2017-05-05T07:45:02.164Z,18.51
2017-05-05T07:45:42.674Z,18.52
2017-05-05T07:46:23.192Z,18.52
2017-05-05T07:47:03.707Z,18.44
2017-05-05T07:47:44.229Z,18.36
2017-05-05T07:48:24.751Z,18.45
2017-05-05T07:49:05.268Z,18.51
2017-05-05T07:49:45.783Z,18.41
2017-05-05T07:50:26.305Z,18.57
2017-05-05T07:51:06.822Z,18.7
2017-05-05T07:51:47.357Z,18.81
2017-05-05T07:52:27.889Z,18.91
2017-05-05T07:53:08.405Z,19.06
2017-05-05T07:53:48.937Z,19.07
2017-05-05T07:54:29.461Z,19.04
2017-05-05T07:55:09.996Z,19.1
2017-05-05T07:55:50.520Z,19.07
2017-05-05T07:56:31.039Z,18.99
2017-05-05T07:57:11.563Z,19.08
2017-05-05T07:57:52.110Z,19.07
2017-05-05T07:58:32.643Z,19.16
2017-05-05T07:59:13.157Z,19.06
2017-05-05T07:59:53.710Z,19.07
2017-05-05T08:00:34.242Z,19.11
2017-05-05T08:01:14.766Z,19.13
2017-05-05T08:01:55.286Z,19.16
2017-05-05T08:02:35.807Z,19.13
2017-05-05T08:03:16.317Z,19.16
2017-05-05T08:03:56.835Z,19.1
2017-05-05T08:04:37.368Z,19.1
2017-05-05T08:05:17.943Z,19.07
2017-05-05T08:05:58.403Z,19.02
2017-05-05T08:06:39.467Z,19.02
2017-05-05T08:07:19.525Z,18.99
2017-05-05T08:08:00.042Z,18.85
2017-05-05T08:08:40.561Z,18.94
2017-05-05T08:09:21.080Z,18.91
2017-05-05T08:10:01.599Z,18.99
2017-05-05T08:10:42.116Z,18.94
2017-05-05T08:11:22.644Z,18.88
2017-05-05T08:12:03.190Z,18.84
2017-05-05T08:12:43.703Z,18.87
2017-05-05T08:13:24.219Z,18.7
2017-05-05T08:14:04.740Z,18.7
2017-05-05T08:14:45.261Z,18.72
2017-05-05T08:15:25.776Z,18.76
2017-05-05T08:16:06.306Z,18.58
2017-05-05T08:16:46.826Z,18.51
2017-05-05T08:17:27.345Z,18.55
2017-05-05T08:18:07.872Z,18.54
2017-05-05T08:18:48.393Z,18.55
2017-05-05T08:19:28.905Z,18.52
2017-05-05T08:20:09.430Z,18.5
2017-05-05T08:20:49.948Z,18.52
2017-05-05T08:21:30.464Z,18.58
2017-05-05T08:22:10.988Z,18.63
2017-05-05T08:22:51.513Z,18.67
2017-05-05T08:23:32.046Z,18.72
2017-05-05T08:24:12.573Z,18.82
2017-05-05T08:24:53.095Z,18.92
2017-05-05T08:25:33.622Z,19.06
2017-05-05T08:26:14.141Z,19.07
2017-05-05T08:26:54.673Z,19.07
2017-05-05T08:27:35.212Z,19.22
2017-05-05T08:28:15.728Z,19.14
2017-05-05T08:28:56.255Z,19.19
2017-05-05T08:29:36.789Z,19.18
2017-05-05T08:30:17.322Z,19.14
2017-05-05T08:30:57.865Z,19.21
2017-05-05T08:31:38.389Z,19.29
2017-05-05T08:32:18.911Z,19.26
2017-05-05T08:32:59.436Z,19.29
2017-05-05T08:33:39.944Z,19.39
2017-05-05T08:34:20.456Z,19.39
2017-05-05T08:35:00.981Z,19.41
2017-05-05T08:35:41.497Z,19.47
2017-05-05T08:36:22.015Z,19.51
2017-05-05T08:37:02.517Z,19.46
2017-05-05T08:37:43.033Z,19.54
2017-05-05T08:38:23.559Z,19.33
2017-05-05T08:39:04.092Z,19.19
2017-05-05T08:39:44.603Z,18.7
2017-05-05T08:40:25.123Z,18.84
2017-05-05T08:41:05.690Z,19.02
2017-05-05T08:41:46.209Z,19.14
2017-05-05T08:42:26.727Z,19.25
2017-05-05T08:43:07.255Z,19.29
2017-05-05T08:43:47.781Z,19.23
2017-05-05T08:44:28.296Z,19.33
2017-05-05T08:45:08.828Z,19.32
2017-05-05T08:45:49.339Z,19.33
2017-05-05T08:46:29.862Z,19.25